Aviation Digital Data Service (ADDS)

Output produced by METARs form (0534 UTC 19 March 2019)
found at http://www.aviationweather.gov/metar/data/
 
METAR text: EGCC 190520Z AUTO 20002KT 3500 BR BKN003 OVC006 08/07 Q1024 NOSIG
Conditions at: EGCC (MANCHESTER INTL , GB) observed 0520 UTC 19 March 2019
Temperature: 8.0°C (46°F)
Dewpoint: 7.0°C (45°F) [RH = 93%]
Pressure (altimeter): 30.24 inches Hg (1024.0 mb)
Winds: from the SSW (200 degrees) at 2 MPH (2 knots; 1.0 m/s)
Visibility: 2.17 miles (3.49 km)
Ceiling: 300 feet AGL
Clouds: broken clouds at 300 feet AGL
overcast cloud deck at 600 feet AGL
Weather: BR  (mist)

METAR text: EGCC 190450Z AUTO 23003KT 4000 BR BKN003 OVC010 08/07 Q1024 NOSIG
Conditions at: EGCC (MANCHESTER INTL , GB) observed 0450 UTC 19 March 2019
Temperature: 8.0°C (46°F)
Dewpoint: 7.0°C (45°F) [RH = 93%]
Pressure (altimeter): 30.24 inches Hg (1024.0 mb)
Winds: from the SW (230 degrees) at 3 MPH (3 knots; 1.5 m/s)
Visibility: 2.49 miles (4.01 km)
Ceiling: 300 feet AGL
Clouds: broken clouds at 300 feet AGL
overcast cloud deck at 1000 feet AGL
Weather: BR  (mist)

METAR text: EGCC 190420Z AUTO 19003KT 3900 BR BKN004 OVC007 08/07 Q1024 NOSIG
Conditions at: EGCC (MANCHESTER INTL , GB) observed 0420 UTC 19 March 2019
Temperature: 8.0°C (46°F)
Dewpoint: 7.0°C (45°F) [RH = 93%]
Pressure (altimeter): 30.24 inches Hg (1024.0 mb)
Winds: from the S (190 degrees) at 3 MPH (3 knots; 1.5 m/s)
Visibility: 2.42 miles (3.89 km)
Ceiling: 400 feet AGL
Clouds: broken clouds at 400 feet AGL
overcast cloud deck at 700 feet AGL
Weather: BR  (mist)

METAR text: EGCC 190350Z AUTO VRB02KT 2900 BR OVC003 08/07 Q1024 NOSIG
Conditions at: EGCC (MANCHESTER INTL , GB) observed 0350 UTC 19 March 2019
Temperature: 8.0°C (46°F)
Dewpoint: 7.0°C (45°F) [RH = 93%]
Pressure (altimeter): 30.24 inches Hg (1024.0 mb)
Winds: variable direction winds at 2 MPH (2 knots; 1.0 m/s)
Visibility: 1.80 miles (2.90 km)
Ceiling: 300 feet AGL
Clouds: overcast cloud deck at 300 feet AGL
Weather: BR  (mist)

METAR text: EGCC 190320Z AUTO VRB01KT 2800 BR OVC003 08/07 Q1023 NOSIG
Conditions at: EGCC (MANCHESTER INTL , GB) observed 0320 UTC 19 March 2019
Temperature: 8.0°C (46°F)
Dewpoint: 7.0°C (45°F) [RH = 93%]
Pressure (altimeter): 30.21 inches Hg (1023.0 mb)
Winds: variable direction winds at 1 MPH (1 knots; 0.5 m/s)
Visibility: 1.74 miles (2.80 km)
Ceiling: 300 feet AGL
Clouds: overcast cloud deck at 300 feet AGL
Weather: BR  (mist)

METAR text: EGCC 190250Z AUTO VRB02KT 3900 BR OVC003 08/07 Q1023 NOSIG
Conditions at: EGCC (MANCHESTER INTL , GB) observed 0250 UTC 19 March 2019
Temperature: 8.0°C (46°F)
Dewpoint: 7.0°C (45°F) [RH = 93%]
Pressure (altimeter): 30.21 inches Hg (1023.0 mb)
Winds: variable direction winds at 2 MPH (2 knots; 1.0 m/s)
Visibility: 2.42 miles (3.89 km)
Ceiling: 300 feet AGL
Clouds: overcast cloud deck at 300 feet AGL
Weather: BR  (mist)

METAR text: EGCC 190220Z AUTO 20002KT 3000 BR OVC003 08/07 Q1023
Conditions at: EGCC (MANCHESTER INTL , GB) observed 0220 UTC 19 March 2019
Temperature: 8.0°C (46°F)
Dewpoint: 7.0°C (45°F) [RH = 93%]
Pressure (altimeter): 30.21 inches Hg (1023.0 mb)
Winds: from the SSW (200 degrees) at 2 MPH (2 knots; 1.0 m/s)
Visibility: 1.86 miles (2.99 km)
Ceiling: 300 feet AGL
Clouds: overcast cloud deck at 300 feet AGL
Weather: BR  (mist)

METAR text: EGCC 190150Z AUTO 16002KT 2100 BR OVC003 07/07 Q1023 NOSIG
Conditions at: EGCC (MANCHESTER INTL , GB) observed 0150 UTC 19 March 2019
Temperature: 7.0°C (45°F)
Dewpoint: 7.0°C (45°F) [RH = 100%]
Pressure (altimeter): 30.21 inches Hg (1023.0 mb)
Winds: from the SSE (160 degrees) at 2 MPH (2 knots; 1.0 m/s)
Visibility: 1.30 miles (2.09 km)
Ceiling: 300 feet AGL
Clouds: overcast cloud deck at 300 feet AGL
Weather: BR  (mist)

METAR text: EGCC 190120Z AUTO 24002KT 2300 BR OVC004 07/07 Q1023
Conditions at: EGCC (MANCHESTER INTL , GB) observed 0120 UTC 19 March 2019
Temperature: 7.0°C (45°F)
Dewpoint: 7.0°C (45°F) [RH = 100%]
Pressure (altimeter): 30.21 inches Hg (1023.0 mb)
Winds: from the WSW (240 degrees) at 2 MPH (2 knots; 1.0 m/s)
Visibility: 1.43 miles (2.30 km)
Ceiling: 400 feet AGL
Clouds: overcast cloud deck at 400 feet AGL
Weather: BR  (mist)

METAR text: EGCC 190050Z AUTO 25002KT 3000 BR BKN002 OVC009 07/07 Q1023 NOSIG
Conditions at: EGCC (MANCHESTER INTL , GB) observed 0050 UTC 19 March 2019
Temperature: 7.0°C (45°F)
Dewpoint: 7.0°C (45°F) [RH = 100%]
Pressure (altimeter): 30.21 inches Hg (1023.0 mb)
Winds: from the WSW (250 degrees) at 2 MPH (2 knots; 1.0 m/s)
Visibility: 1.86 miles (2.99 km)
Ceiling: 200 feet AGL
Clouds: broken clouds at 200 feet AGL
overcast cloud deck at 900 feet AGL
Weather: BR  (mist)

METAR text: EGCC 190020Z AUTO 19002KT 2600 BR OVC003 07/07 Q1023 NOSIG
Conditions at: EGCC (MANCHESTER INTL , GB) observed 0020 UTC 19 March 2019
Temperature: 7.0°C (45°F)
Dewpoint: 7.0°C (45°F) [RH = 100%]
Pressure (altimeter): 30.21 inches Hg (1023.0 mb)
Winds: from the S (190 degrees) at 2 MPH (2 knots; 1.0 m/s)
Visibility: 1.62 miles (2.61 km)
Ceiling: 300 feet AGL
Clouds: overcast cloud deck at 300 feet AGL
Weather: BR  (mist)

METAR text: EGCC 182350Z AUTO VRB02KT 1500 BR BKN003 07/07 Q1023 NOSIG
Conditions at: EGCC (MANCHESTER INTL , GB) observed 2350 UTC 18 March 2019
Temperature: 7.0°C (45°F)
Dewpoint: 7.0°C (45°F) [RH = 100%]
Pressure (altimeter): 30.21 inches Hg (1023.0 mb)
Winds: variable direction winds at 2 MPH (2 knots; 1.0 m/s)
Visibility: 0.93 miles (1.50 km)
Ceiling: 300 feet AGL
Clouds: broken clouds at 300 feet AGL
Weather: BR  (mist)

METAR text: EGCC 182320Z AUTO VRB02KT 3600 BR BKN003 BKN006 OVC014 07/07 Q1023 TEMPO SCT003 BKN015
Conditions at: EGCC (MANCHESTER INTL , GB) observed 2320 UTC 18 March 2019
Temperature: 7.0°C (45°F)
Dewpoint: 7.0°C (45°F) [RH = 100%]
Pressure (altimeter): 30.21 inches Hg (1023.0 mb)
Winds: variable direction winds at 2 MPH (2 knots; 1.0 m/s)
Visibility: 2.24 miles (3.60 km)
Ceiling: 300 feet AGL
Clouds: broken clouds at 300 feet AGL
broken clouds at 600 feet AGL
overcast cloud deck at 1400 feet AGL
Weather: BR  (mist)

METAR text: EGCC 182250Z AUTO 22002KT 3900 BR OVC002 07/07 Q1022 TEMPO FEW002 BKN006
Conditions at: EGCC (MANCHESTER INTL , GB) observed 2250 UTC 18 March 2019
Temperature: 7.0°C (45°F)
Dewpoint: 7.0°C (45°F) [RH = 100%]
Pressure (altimeter): 30.18 inches Hg (1022.0 mb)
Winds: from the SW (220 degrees) at 2 MPH (2 knots; 1.0 m/s)
Visibility: 2.42 miles (3.89 km)
Ceiling: 200 feet AGL
Clouds: overcast cloud deck at 200 feet AGL
Weather: BR  (mist)

METAR text: EGCC 182220Z AUTO VRB02KT 4200 BR OVC002 07/07 Q1022 RERA TEMPO 8000 -DZ FEW002 BKN006
Conditions at: EGCC (MANCHESTER INTL , GB) observed 2220 UTC 18 March 2019
Temperature: 7.0°C (45°F)
Dewpoint: 7.0°C (45°F) [RH = 100%]
Pressure (altimeter): 30.18 inches Hg (1022.0 mb)
Winds: variable direction winds at 2 MPH (2 knots; 1.0 m/s)
Visibility: 2.61 miles (4.20 km)
Ceiling: 200 feet AGL
Clouds: overcast cloud deck at 200 feet AGL
Weather: BR  (mist)

METAR text: EGCC 182150Z VRB02KT 4400 RA BKN003 OVC012 07/07 Q1022 TEMPO 8000 -DZ
Conditions at: EGCC (MANCHESTER INTL , GB) observed 2150 UTC 18 March 2019
Temperature: 7.0°C (45°F)
Dewpoint: 7.0°C (45°F) [RH = 100%]
Pressure (altimeter): 30.18 inches Hg (1022.0 mb)
Winds: variable direction winds at 2 MPH (2 knots; 1.0 m/s)
Visibility: 2.73 miles (4.39 km)
Ceiling: 300 feet AGL
Clouds: broken clouds at 300 feet AGL
overcast cloud deck at 1200 feet AGL
Weather: RA  (moderate rain)

METAR text: EGCC 182120Z 20004KT 170V260 5000 -DZ FEW002 BKN005 07/07 Q1022 REDZ TEMPO 4000 DZ
Conditions at: EGCC (MANCHESTER INTL , GB) observed 2120 UTC 18 March 2019
Temperature: 7.0°C (45°F)
Dewpoint: 7.0°C (45°F) [RH = 100%]
Pressure (altimeter): 30.18 inches Hg (1022.0 mb)
Winds: from the SSW (200 degrees) at 5 MPH (4 knots; 2.1 m/s)
Visibility: 3 miles ( 5 km)
Ceiling: 500 feet AGL
Clouds: few clouds at 200 feet AGL
broken clouds at 500 feet AGL
Weather: -DZ  (light drizzle)

METAR text: EGCC 182050Z VRB02KT 2800 DZ FEW003 BKN005 07/07 Q1022 RERA TEMPO BKN003
Conditions at: EGCC (MANCHESTER INTL , GB) observed 2050 UTC 18 March 2019
Temperature: 7.0°C (45°F)
Dewpoint: 7.0°C (45°F) [RH = 100%]
Pressure (altimeter): 30.18 inches Hg (1022.0 mb)
Winds: variable direction winds at 2 MPH (2 knots; 1.0 m/s)
Visibility: 1.74 miles (2.80 km)
Ceiling: 500 feet AGL
Clouds: few clouds at 300 feet AGL
broken clouds at 500 feet AGL
Weather: DZ  (moderate drizzle)

METAR text: EGCC 182020Z VRB02KT 2100 RADZ BKN004 07/07 Q1022 RERA TEMPO 5000 -RADZ BKN006
Conditions at: EGCC (MANCHESTER INTL , GB) observed 2020 UTC 18 March 2019
Temperature: 7.0°C (45°F)
Dewpoint: 7.0°C (45°F) [RH = 100%]
Pressure (altimeter): 30.18 inches Hg (1022.0 mb)
Winds: variable direction winds at 2 MPH (2 knots; 1.0 m/s)
Visibility: 1.30 miles (2.09 km)
Ceiling: 400 feet AGL
Clouds: broken clouds at 400 feet AGL
Weather: RA DZ  (moderate rain, moderate drizzle)

METAR text: EGCC 181950Z 19003KT 7000 -RADZ FEW004 BKN009 07/06 Q1022 RERA REDZ NOSIG
Conditions at: EGCC (MANCHESTER INTL , GB) observed 1950 UTC 18 March 2019
Temperature: 7.0°C (45°F)
Dewpoint: 6.0°C (43°F) [RH = 93%]
Pressure (altimeter): 30.18 inches Hg (1022.0 mb)
Winds: from the S (190 degrees) at 3 MPH (3 knots; 1.5 m/s)
Visibility: 4 miles ( 7 km)
Ceiling: 900 feet AGL
Clouds: few clouds at 400 feet AGL
broken clouds at 900 feet AGL
Weather: -RA -DZ  (light rain, light drizzle)

METAR text: EGCC 181920Z VRB02KT 6000 -RA BKN009 OVC015 07/06 Q1021 TEMPO BKN006
Conditions at: EGCC (MANCHESTER INTL , GB) observed 1920 UTC 18 March 2019
Temperature: 7.0°C (45°F)
Dewpoint: 6.0°C (43°F) [RH = 93%]
Pressure (altimeter): 30.15 inches Hg (1021.0 mb)
Winds: variable direction winds at 2 MPH (2 knots; 1.0 m/s)
Visibility: 4 miles ( 6 km)
Ceiling: 900 feet AGL
Clouds: broken clouds at 900 feet AGL
overcast cloud deck at 1500 feet AGL
Weather: -RA  (light rain)

METAR text: EGCC 181850Z VRB02KT 6000 -RADZ FEW008 BKN011 07/06 Q1021 TEMPO RADZ BKN006
Conditions at: EGCC (MANCHESTER INTL , GB) observed 1850 UTC 18 March 2019
Temperature: 7.0°C (45°F)
Dewpoint: 6.0°C (43°F) [RH = 93%]
Pressure (altimeter): 30.15 inches Hg (1021.0 mb)
Winds: variable direction winds at 2 MPH (2 knots; 1.0 m/s)
Visibility: 4 miles ( 6 km)
Ceiling: 1100 feet AGL
Clouds: few clouds at 800 feet AGL
broken clouds at 1100 feet AGL
Weather: -RA -DZ  (light rain, light drizzle)

METAR text: EGCC 181820Z VRB02KT 5000 -RADZ SCT006 BKN011 07/06 Q1021 RERA REDZ TEMPO RADZ BKN006
Conditions at: EGCC (MANCHESTER INTL , GB) observed 1820 UTC 18 March 2019
Temperature: 7.0°C (45°F)
Dewpoint: 6.0°C (43°F) [RH = 93%]
Pressure (altimeter): 30.15 inches Hg (1021.0 mb)
Winds: variable direction winds at 2 MPH (2 knots; 1.0 m/s)
Visibility: 3 miles ( 5 km)
Ceiling: 1100 feet AGL
Clouds: scattered clouds at 600 feet AGL
broken clouds at 1100 feet AGL
Weather: -RA -DZ  (light rain, light drizzle)

METAR text: EGCC 181750Z 20002KT 5000 RADZ BKN013 07/06 Q1021 TEMPO BKN010
Conditions at: EGCC (MANCHESTER INTL , GB) observed 1750 UTC 18 March 2019
Temperature: 7.0°C (45°F)
Dewpoint: 6.0°C (43°F) [RH = 93%]
Pressure (altimeter): 30.15 inches Hg (1021.0 mb)
Winds: from the SSW (200 degrees) at 2 MPH (2 knots; 1.0 m/s)
Visibility: 3 miles ( 5 km)
Ceiling: 1300 feet AGL
Clouds: broken clouds at 1300 feet AGL
Weather: RA DZ  (moderate rain, moderate drizzle)

METAR text: EGCC 181720Z VRB02KT 9999 -RA BKN024 07/06 Q1020 TEMPO BKN010
Conditions at: EGCC (MANCHESTER INTL , GB) observed 1720 UTC 18 March 2019
Temperature: 7.0°C (45°F)
Dewpoint: 6.0°C (43°F) [RH = 93%]
Pressure (altimeter): 30.12 inches Hg (1020.0 mb)
Winds: variable direction winds at 2 MPH (2 knots; 1.0 m/s)
Visibility: 6 or more miles (10+ km)
Ceiling: 2400 feet AGL
Clouds: broken clouds at 2400 feet AGL
Weather: -RA  (light rain)

METAR text: EGCC 181650Z AUTO 19003KT 9999 -RA SCT020 BKN028 BKN033 07/06 Q1020 TEMPO BKN010
Conditions at: EGCC (MANCHESTER INTL , GB) observed 1650 UTC 18 March 2019
Temperature: 7.0°C (45°F)
Dewpoint: 6.0°C (43°F) [RH = 93%]
Pressure (altimeter): 30.12 inches Hg (1020.0 mb)
Winds: from the S (190 degrees) at 3 MPH (3 knots; 1.5 m/s)
Visibility: 6 or more miles (10+ km)
Ceiling: 2800 feet AGL
Clouds: scattered clouds at 2000 feet AGL
broken clouds at 2800 feet AGL
broken clouds at 3300 feet AGL
Weather: -RA  (light rain)

METAR text: EGCC 181620Z 21003KT 9999 6000E -RA FEW007 BKN021 07/06 Q1020 TEMPO 4500 RADZ BKN006
Conditions at: EGCC (MANCHESTER INTL , GB) observed 1620 UTC 18 March 2019
Temperature: 7.0°C (45°F)
Dewpoint: 6.0°C (43°F) [RH = 93%]
Pressure (altimeter): 30.12 inches Hg (1020.0 mb)
Winds: from the SSW (210 degrees) at 3 MPH (3 knots; 1.5 m/s)
Visibility: 6 or more miles (10+ km)
Ceiling: 2100 feet AGL
Clouds: few clouds at 700 feet AGL
broken clouds at 2100 feet AGL
Weather: -RA  (light rain)

METAR text: EGCC 181550Z AUTO 22004KT 9999 -RA SCT012 BKN020 BKN028 07/06 Q1020 TEMPO 4500 RADZ BKN006
Conditions at: EGCC (MANCHESTER INTL , GB) observed 1550 UTC 18 March 2019
Temperature: 7.0°C (45°F)
Dewpoint: 6.0°C (43°F) [RH = 93%]
Pressure (altimeter): 30.12 inches Hg (1020.0 mb)
Winds: from the SW (220 degrees) at 5 MPH (4 knots; 2.1 m/s)
Visibility: 6 or more miles (10+ km)
Ceiling: 2000 feet AGL
Clouds: scattered clouds at 1200 feet AGL
broken clouds at 2000 feet AGL
broken clouds at 2800 feet AGL
Weather: -RA  (light rain)

METAR text: EGCC 181520Z AUTO 22005KT 9000 -RA FEW013 SCT018 BKN024 08/06 Q1020 TEMPO BKN010
Conditions at: EGCC (MANCHESTER INTL , GB) observed 1520 UTC 18 March 2019
Temperature: 8.0°C (46°F)
Dewpoint: 6.0°C (43°F) [RH = 87%]
Pressure (altimeter): 30.12 inches Hg (1020.0 mb)
Winds: from the SW (220 degrees) at 6 MPH (5 knots; 2.6 m/s)
Visibility: 6 miles ( 9 km)
Ceiling: 2400 feet AGL
Clouds: few clouds at 1300 feet AGL
scattered clouds at 1800 feet AGL
broken clouds at 2400 feet AGL
Weather: -RA  (light rain)

METAR text: EGCC 181450Z AUTO VRB03KT 9999 -RA FEW011 SCT017 BKN033 08/06 Q1020 TEMPO BKN010
Conditions at: EGCC (MANCHESTER INTL , GB) observed 1450 UTC 18 March 2019
Temperature: 8.0°C (46°F)
Dewpoint: 6.0°C (43°F) [RH = 87%]
Pressure (altimeter): 30.12 inches Hg (1020.0 mb)
Winds: variable direction winds at 3 MPH (3 knots; 1.5 m/s)
Visibility: 6 or more miles (10+ km)
Ceiling: 3300 feet AGL
Clouds: few clouds at 1100 feet AGL
scattered clouds at 1700 feet AGL
broken clouds at 3300 feet AGL
Weather: -RA  (light rain)

METAR text: EGCC 181420Z AUTO 25007KT 9999 -RA SCT015 BKN022 08/05 Q1020 TEMPO BKN010
Conditions at: EGCC (MANCHESTER INTL , GB) observed 1420 UTC 18 March 2019
Temperature: 8.0°C (46°F)
Dewpoint: 5.0°C (41°F) [RH = 81%]
Pressure (altimeter): 30.12 inches Hg (1020.0 mb)
Winds: from the WSW (250 degrees) at 8 MPH (7 knots; 3.6 m/s)
Visibility: 6 or more miles (10+ km)
Ceiling: 2200 feet AGL
Clouds: scattered clouds at 1500 feet AGL
broken clouds at 2200 feet AGL
Weather: -RA  (light rain)

METAR text: EGCC 181350Z AUTO 24008KT 170V260 9999 -RA SCT016 BKN022 BKN031 08/05 Q1020 TEMPO BKN010
Conditions at: EGCC (MANCHESTER INTL , GB) observed 1350 UTC 18 March 2019
Temperature: 8.0°C (46°F)
Dewpoint: 5.0°C (41°F) [RH = 81%]
Pressure (altimeter): 30.12 inches Hg (1020.0 mb)
Winds: from the WSW (240 degrees) at 9 MPH (8 knots; 4.1 m/s)
Visibility: 6 or more miles (10+ km)
Ceiling: 2200 feet AGL
Clouds: scattered clouds at 1600 feet AGL
broken clouds at 2200 feet AGL
broken clouds at 3100 feet AGL
Weather: -RA  (light rain)

METAR text: EGCC 181320Z AUTO 23008KT 190V260 9999 -RA BKN015 BKN030 OVC041 08/05 Q1020 NOSIG
Conditions at: EGCC (MANCHESTER INTL , GB) observed 1320 UTC 18 March 2019
Temperature: 8.0°C (46°F)
Dewpoint: 5.0°C (41°F) [RH = 81%]
Pressure (altimeter): 30.12 inches Hg (1020.0 mb)
Winds: from the SW (230 degrees) at 9 MPH (8 knots; 4.1 m/s)
Visibility: 6 or more miles (10+ km)
Ceiling: 1500 feet AGL
Clouds: broken clouds at 1500 feet AGL
broken clouds at 3000 feet AGL
overcast cloud deck at 4100 feet AGL
Weather: -RA  (light rain)

METAR text: EGCC 181250Z AUTO 24007KT 190V260 9999 -RA BKN014 OVC029 07/05 Q1020
Conditions at: EGCC (MANCHESTER INTL , GB) observed 1250 UTC 18 March 2019
Temperature: 7.0°C (45°F)
Dewpoint: 5.0°C (41°F) [RH = 87%]
Pressure (altimeter): 30.12 inches Hg (1020.0 mb)
Winds: from the WSW (240 degrees) at 8 MPH (7 knots; 3.6 m/s)
Visibility: 6 or more miles (10+ km)
Ceiling: 1400 feet AGL
Clouds: broken clouds at 1400 feet AGL
overcast cloud deck at 2900 feet AGL
Weather: -RA  (light rain)

METAR text: EGCC 181220Z AUTO 26006KT 9999 -RA SCT011 BKN015 OVC021 07/05 Q1020 NOSIG
Conditions at: EGCC (MANCHESTER INTL , GB) observed 1220 UTC 18 March 2019
Temperature: 7.0°C (45°F)
Dewpoint: 5.0°C (41°F) [RH = 87%]
Pressure (altimeter): 30.12 inches Hg (1020.0 mb)
Winds: from the W (260 degrees) at 7 MPH (6 knots; 3.1 m/s)
Visibility: 6 or more miles (10+ km)
Ceiling: 1500 feet AGL
Clouds: scattered clouds at 1100 feet AGL
broken clouds at 1500 feet AGL
overcast cloud deck at 2100 feet AGL
Weather: -RA  (light rain)

METAR text: EGCC 181150Z AUTO 25007KT 9999 -RA SCT015 BKN019 OVC032 07/05 Q1020
Conditions at: EGCC (MANCHESTER INTL , GB) observed 1150 UTC 18 March 2019
Temperature: 7.0°C (45°F)
Dewpoint: 5.0°C (41°F) [RH = 87%]
Pressure (altimeter): 30.12 inches Hg (1020.0 mb)
Winds: from the WSW (250 degrees) at 8 MPH (7 knots; 3.6 m/s)
Visibility: 6 or more miles (10+ km)
Ceiling: 1900 feet AGL
Clouds: scattered clouds at 1500 feet AGL
broken clouds at 1900 feet AGL
overcast cloud deck at 3200 feet AGL
Weather: -RA  (light rain)

METAR text: EGCC 181120Z AUTO 27008KT 220V280 9999 -RA FEW025 BKN030 07/04 Q1020 NOSIG
Conditions at: EGCC (MANCHESTER INTL , GB) observed 1120 UTC 18 March 2019
Temperature: 7.0°C (45°F)
Dewpoint: 4.0°C (39°F) [RH = 81%]
Pressure (altimeter): 30.12 inches Hg (1020.0 mb)
Winds: from the W (270 degrees) at 9 MPH (8 knots; 4.1 m/s)
Visibility: 6 or more miles (10+ km)
Ceiling: 3000 feet AGL
Clouds: few clouds at 2500 feet AGL
broken clouds at 3000 feet AGL
Weather: -RA  (light rain)

METAR text: EGCC 181050Z AUTO 26009KT 9999 -RA FEW016 SCT025 BKN030 07/04 Q1019
Conditions at: EGCC (MANCHESTER INTL , GB) observed 1050 UTC 18 March 2019
Temperature: 7.0°C (45°F)
Dewpoint: 4.0°C (39°F) [RH = 81%]
Pressure (altimeter): 30.09 inches Hg (1019.0 mb)
Winds: from the W (260 degrees) at 10 MPH (9 knots; 4.6 m/s)
Visibility: 6 or more miles (10+ km)
Ceiling: 3000 feet AGL
Clouds: few clouds at 1600 feet AGL
scattered clouds at 2500 feet AGL
broken clouds at 3000 feet AGL
Weather: -RA  (light rain)

METAR text: EGCC 181020Z 26012KT 9999 -SHRA SCT015 BKN037 07/04 Q1019
Conditions at: EGCC (MANCHESTER INTL , GB) observed 1020 UTC 18 March 2019
Temperature: 7.0°C (45°F)
Dewpoint: 4.0°C (39°F) [RH = 81%]
Pressure (altimeter): 30.09 inches Hg (1019.0 mb)
Winds: from the W (260 degrees) at 14 MPH (12 knots; 6.2 m/s)
Visibility: 6 or more miles (10+ km)
Ceiling: 3700 feet AGL
Clouds: scattered clouds at 1500 feet AGL
broken clouds at 3700 feet AGL
Weather: -SHRA  (light rain showers)

METAR text: EGCC 180950Z 24005KT 190V290 9999 SCT011TCU BKN019 07/05 Q1019 NOSIG
Conditions at: EGCC (MANCHESTER INTL , GB) observed 0950 UTC 18 March 2019
Temperature: 7.0°C (45°F)
Dewpoint: 5.0°C (41°F) [RH = 87%]
Pressure (altimeter): 30.09 inches Hg (1019.0 mb)
Winds: from the WSW (240 degrees) at 6 MPH (5 knots; 2.6 m/s)
Visibility: 6 or more miles (10+ km)
Ceiling: 1900 feet AGL
Clouds: scattered clouds at 1100 feet AGL
broken clouds at 1900 feet AGL
Weather: no significant weather observed at this time

METAR text: EGCC 180920Z 24006KT 9999 SCT011 SCT032TCU 06/04 Q1019 NOSIG
Conditions at: EGCC (MANCHESTER INTL , GB) observed 0920 UTC 18 March 2019
Temperature: 6.0°C (43°F)
Dewpoint: 4.0°C (39°F) [RH = 87%]
Pressure (altimeter): 30.09 inches Hg (1019.0 mb)
Winds: from the WSW (240 degrees) at 7 MPH (6 knots; 3.1 m/s)
Visibility: 6 or more miles (10+ km)
Ceiling: at least 12,000 feet AGL
Clouds: scattered clouds at 1100 feet AGL
scattered clouds at 3200 feet AGL
Weather: no significant weather observed at this time

METAR text: EGCC 180850Z 22004KT 9999 -SHRA SCT014CB SCT030TCU 06/04 Q1018
Conditions at: EGCC (MANCHESTER INTL , GB) observed 0850 UTC 18 March 2019
Temperature: 6.0°C (43°F)
Dewpoint: 4.0°C (39°F) [RH = 87%]
Pressure (altimeter): 30.06 inches Hg (1018.0 mb)
Winds: from the SW (220 degrees) at 5 MPH (4 knots; 2.1 m/s)
Visibility: 6 or more miles (10+ km)
Ceiling: at least 12,000 feet AGL
Clouds: scattered clouds at 1400 feet AGL
scattered clouds at 3000 feet AGL
Weather: -SHRA  (light rain showers)

METAR text: EGCC 180820Z 25004KT 9999 FEW016CB FEW028TCU SCT032 06/03 Q1018 NOSIG
Conditions at: EGCC (MANCHESTER INTL , GB) observed 0820 UTC 18 March 2019
Temperature: 6.0°C (43°F)
Dewpoint: 3.0°C (37°F) [RH = 81%]
Pressure (altimeter): 30.06 inches Hg (1018.0 mb)
Winds: from the WSW (250 degrees) at 5 MPH (4 knots; 2.1 m/s)
Visibility: 6 or more miles (10+ km)
Ceiling: at least 12,000 feet AGL
Clouds: few clouds at 1600 feet AGL
few clouds at 2800 feet AGL
scattered clouds at 3200 feet AGL
Weather: no significant weather observed at this time

METAR text: EGCC 180750Z 23006KT 9999 SCT016TCU BKN028 06/04 Q1018 TEMPO -RA BKN010
Conditions at: EGCC (MANCHESTER INTL , GB) observed 0750 UTC 18 March 2019
Temperature: 6.0°C (43°F)
Dewpoint: 4.0°C (39°F) [RH = 87%]
Pressure (altimeter): 30.06 inches Hg (1018.0 mb)
Winds: from the SW (230 degrees) at 7 MPH (6 knots; 3.1 m/s)
Visibility: 6 or more miles (10+ km)
Ceiling: 2800 feet AGL
Clouds: scattered clouds at 1600 feet AGL
broken clouds at 2800 feet AGL
Weather: no significant weather observed at this time

METAR text: EGCC 180720Z 24006KT 9999 SCT017 06/04 Q1018 NOSIG
Conditions at: EGCC (MANCHESTER INTL , GB) observed 0720 UTC 18 March 2019
Temperature: 6.0°C (43°F)
Dewpoint: 4.0°C (39°F) [RH = 87%]
Pressure (altimeter): 30.06 inches Hg (1018.0 mb)
Winds: from the WSW (240 degrees) at 7 MPH (6 knots; 3.1 m/s)
Visibility: 6 or more miles (10+ km)
Ceiling: at least 12,000 feet AGL
Clouds: scattered clouds at 1700 feet AGL
Weather: no significant weather observed at this time

METAR text: EGCC 180650Z 23004KT 9999 FEW013 SCT032 05/04 Q1017 NOSIG
Conditions at: EGCC (MANCHESTER INTL , GB) observed 0650 UTC 18 March 2019
Temperature: 5.0°C (41°F)
Dewpoint: 4.0°C (39°F) [RH = 93%]
Pressure (altimeter): 30.03 inches Hg (1017.0 mb)
Winds: from the SW (230 degrees) at 5 MPH (4 knots; 2.1 m/s)
Visibility: 6 or more miles (10+ km)
Ceiling: at least 12,000 feet AGL
Clouds: few clouds at 1300 feet AGL
scattered clouds at 3200 feet AGL
Weather: no significant weather observed at this time

METAR text: EGCC 180620Z 20003KT 9999 SCT013 SCT031 04/03 Q1017 NOSIG
Conditions at: EGCC (MANCHESTER INTL , GB) observed 0620 UTC 18 March 2019
Temperature: 4.0°C (39°F)
Dewpoint: 3.0°C (37°F) [RH = 93%]
Pressure (altimeter): 30.03 inches Hg (1017.0 mb)
Winds: from the SSW (200 degrees) at 3 MPH (3 knots; 1.5 m/s)
Visibility: 6 or more miles (10+ km)
Ceiling: at least 12,000 feet AGL
Clouds: scattered clouds at 1300 feet AGL
scattered clouds at 3100 feet AGL
Weather: no significant weather observed at this time

METAR text: EGCC 180550Z AUTO 23004KT 9999 BKN013 04/03 Q1017 TEMPO FEW013
Conditions at: EGCC (MANCHESTER INTL , GB) observed 0550 UTC 18 March 2019
Temperature: 4.0°C (39°F)
Dewpoint: 3.0°C (37°F) [RH = 93%]
Pressure (altimeter): 30.03 inches Hg (1017.0 mb)
Winds: from the SW (230 degrees) at 5 MPH (4 knots; 2.1 m/s)
Visibility: 6 or more miles (10+ km)
Ceiling: 1300 feet AGL
Clouds: broken clouds at 1300 feet AGL
Weather: no significant weather observed at this time

METAR text: EGCC 180520Z AUTO 23004KT 9999 NCD 04/03 Q1017
Conditions at: EGCC (MANCHESTER INTL , GB) observed 0520 UTC 18 March 2019
Temperature: 4.0°C (39°F)
Dewpoint: 3.0°C (37°F) [RH = 93%]
Pressure (altimeter): 30.03 inches Hg (1017.0 mb)
Winds: from the SW (230 degrees) at 5 MPH (4 knots; 2.1 m/s)
Visibility: 6 or more miles (10+ km)
Ceiling: at least 12,000 feet AGL
Clouds: sky clear below 12,000 feet AGL
Weather: no significant weather observed at this time

METAR text: EGCC 180450Z AUTO 25006KT 9999 NCD 04/02 Q1017 NOSIG
Conditions at: EGCC (MANCHESTER INTL , GB) observed 0450 UTC 18 March 2019
Temperature: 4.0°C (39°F)
Dewpoint: 2.0°C (36°F) [RH = 87%]
Pressure (altimeter): 30.03 inches Hg (1017.0 mb)
Winds: from the WSW (250 degrees) at 7 MPH (6 knots; 3.1 m/s)
Visibility: 6 or more miles (10+ km)
Ceiling: at least 12,000 feet AGL
Clouds: sky clear below 12,000 feet AGL
Weather: no significant weather observed at this time

METAR text: EGCC 180420Z AUTO 27006KT 9999 FEW024 SCT045 04/02 Q1016 NOSIG
Conditions at: EGCC (MANCHESTER INTL , GB) observed 0420 UTC 18 March 2019
Temperature: 4.0°C (39°F)
Dewpoint: 2.0°C (36°F) [RH = 87%]
Pressure (altimeter): 30.00 inches Hg (1016.0 mb)
Winds: from the W (270 degrees) at 7 MPH (6 knots; 3.1 m/s)
Visibility: 6 or more miles (10+ km)
Ceiling: at least 12,000 feet AGL
Clouds: few clouds at 2400 feet AGL
scattered clouds at 4500 feet AGL
Weather: no significant weather observed at this time

METAR text: EGCC 180350Z AUTO 28005KT 9999 SCT027 SCT035 05/02 Q1016 NOSIG
Conditions at: EGCC (MANCHESTER INTL , GB) observed 0350 UTC 18 March 2019
Temperature: 5.0°C (41°F)
Dewpoint: 2.0°C (36°F) [RH = 81%]
Pressure (altimeter): 30.00 inches Hg (1016.0 mb)
Winds: from the W (280 degrees) at 6 MPH (5 knots; 2.6 m/s)
Visibility: 6 or more miles (10+ km)
Ceiling: at least 12,000 feet AGL
Clouds: scattered clouds at 2700 feet AGL
scattered clouds at 3500 feet AGL
Weather: no significant weather observed at this time

METAR text: EGCC 180320Z AUTO 28005KT 9999 FEW027 05/02 Q1016 NOSIG
Conditions at: EGCC (MANCHESTER INTL , GB) observed 0320 UTC 18 March 2019
Temperature: 5.0°C (41°F)
Dewpoint: 2.0°C (36°F) [RH = 81%]
Pressure (altimeter): 30.00 inches Hg (1016.0 mb)
Winds: from the W (280 degrees) at 6 MPH (5 knots; 2.6 m/s)
Visibility: 6 or more miles (10+ km)
Ceiling: at least 12,000 feet AGL
Clouds: few clouds at 2700 feet AGL
Weather: no significant weather observed at this time

METAR text: EGCC 180250Z AUTO 28006KT 9999 NCD 05/03 Q1016
Conditions at: EGCC (MANCHESTER INTL , GB) observed 0250 UTC 18 March 2019
Temperature: 5.0°C (41°F)
Dewpoint: 3.0°C (37°F) [RH = 87%]
Pressure (altimeter): 30.00 inches Hg (1016.0 mb)
Winds: from the W (280 degrees) at 7 MPH (6 knots; 3.1 m/s)
Visibility: 6 or more miles (10+ km)
Ceiling: at least 12,000 feet AGL
Clouds: sky clear below 12,000 feet AGL
Weather: no significant weather observed at this time

METAR text: EGCC 180220Z AUTO 28006KT 9999 FEW021 05/03 Q1016 NOSIG
Conditions at: EGCC (MANCHESTER INTL , GB) observed 0220 UTC 18 March 2019
Temperature: 5.0°C (41°F)
Dewpoint: 3.0°C (37°F) [RH = 87%]
Pressure (altimeter): 30.00 inches Hg (1016.0 mb)
Winds: from the W (280 degrees) at 7 MPH (6 knots; 3.1 m/s)
Visibility: 6 or more miles (10+ km)
Ceiling: at least 12,000 feet AGL
Clouds: few clouds at 2100 feet AGL
Weather: no significant weather observed at this time

METAR text: EGCC 180150Z AUTO 29009KT 9999 FEW018 05/03 Q1015 NOSIG
Conditions at: EGCC (MANCHESTER INTL , GB) observed 0150 UTC 18 March 2019
Temperature: 5.0°C (41°F)
Dewpoint: 3.0°C (37°F) [RH = 87%]
Pressure (altimeter): 29.97 inches Hg (1015.0 mb)
Winds: from the WNW (290 degrees) at 10 MPH (9 knots; 4.6 m/s)
Visibility: 6 or more miles (10+ km)
Ceiling: at least 12,000 feet AGL
Clouds: few clouds at 1800 feet AGL
Weather: no significant weather observed at this time

METAR text: EGCC 180120Z AUTO 29008KT 9999 NCD 05/03 Q1015 NOSIG
Conditions at: EGCC (MANCHESTER INTL , GB) observed 0120 UTC 18 March 2019
Temperature: 5.0°C (41°F)
Dewpoint: 3.0°C (37°F) [RH = 87%]
Pressure (altimeter): 29.97 inches Hg (1015.0 mb)
Winds: from the WNW (290 degrees) at 9 MPH (8 knots; 4.1 m/s)
Visibility: 6 or more miles (10+ km)
Ceiling: at least 12,000 feet AGL
Clouds: sky clear below 12,000 feet AGL
Weather: no significant weather observed at this time

METAR text: EGCC 180050Z AUTO 24005KT 9999 NCD 04/02 Q1015 NOSIG
Conditions at: EGCC (MANCHESTER INTL , GB) observed 0050 UTC 18 March 2019
Temperature: 4.0°C (39°F)
Dewpoint: 2.0°C (36°F) [RH = 87%]
Pressure (altimeter): 29.97 inches Hg (1015.0 mb)
Winds: from the WSW (240 degrees) at 6 MPH (5 knots; 2.6 m/s)
Visibility: 6 or more miles (10+ km)
Ceiling: at least 12,000 feet AGL
Clouds: sky clear below 12,000 feet AGL
Weather: no significant weather observed at this time

METAR text: EGCC 180020Z AUTO 28006KT 9999 NCD 05/02 Q1014 NOSIG
Conditions at: EGCC (MANCHESTER INTL , GB) observed 0020 UTC 18 March 2019
Temperature: 5.0°C (41°F)
Dewpoint: 2.0°C (36°F) [RH = 81%]
Pressure (altimeter): 29.94 inches Hg (1014.0 mb)
Winds: from the W (280 degrees) at 7 MPH (6 knots; 3.1 m/s)
Visibility: 6 or more miles (10+ km)
Ceiling: at least 12,000 feet AGL
Clouds: sky clear below 12,000 feet AGL
Weather: no significant weather observed at this time

METAR text: EGCC 172350Z AUTO 29006KT 9999 NCD 05/03 Q1014 NOSIG
Conditions at: EGCC (MANCHESTER INTL , GB) observed 2350 UTC 17 March 2019
Temperature: 5.0°C (41°F)
Dewpoint: 3.0°C (37°F) [RH = 87%]
Pressure (altimeter): 29.94 inches Hg (1014.0 mb)
Winds: from the WNW (290 degrees) at 7 MPH (6 knots; 3.1 m/s)
Visibility: 6 or more miles (10+ km)
Ceiling: at least 12,000 feet AGL
Clouds: sky clear below 12,000 feet AGL
Weather: no significant weather observed at this time

METAR text: EGCC 172320Z AUTO 27004KT 220V300 9999 NCD 05/02 Q1014 NOSIG
Conditions at: EGCC (MANCHESTER INTL , GB) observed 2320 UTC 17 March 2019
Temperature: 5.0°C (41°F)
Dewpoint: 2.0°C (36°F) [RH = 81%]
Pressure (altimeter): 29.94 inches Hg (1014.0 mb)
Winds: from the W (270 degrees) at 5 MPH (4 knots; 2.1 m/s)
Visibility: 6 or more miles (10+ km)
Ceiling: at least 12,000 feet AGL
Clouds: sky clear below 12,000 feet AGL
Weather: no significant weather observed at this time

METAR text: EGCC 172250Z AUTO 28008KT 9999 NCD 05/02 Q1013 NOSIG
Conditions at: EGCC (MANCHESTER INTL , GB) observed 2250 UTC 17 March 2019
Temperature: 5.0°C (41°F)
Dewpoint: 2.0°C (36°F) [RH = 81%]
Pressure (altimeter): 29.91 inches Hg (1013.0 mb)
Winds: from the W (280 degrees) at 9 MPH (8 knots; 4.1 m/s)
Visibility: 6 or more miles (10+ km)
Ceiling: at least 12,000 feet AGL
Clouds: sky clear below 12,000 feet AGL
Weather: no significant weather observed at this time

METAR text: EGCC 172220Z AUTO 29009KT 9999 NCD 06/03 Q1013 NOSIG
Conditions at: EGCC (MANCHESTER INTL , GB) observed 2220 UTC 17 March 2019
Temperature: 6.0°C (43°F)
Dewpoint: 3.0°C (37°F) [RH = 81%]
Pressure (altimeter): 29.91 inches Hg (1013.0 mb)
Winds: from the WNW (290 degrees) at 10 MPH (9 knots; 4.6 m/s)
Visibility: 6 or more miles (10+ km)
Ceiling: at least 12,000 feet AGL
Clouds: sky clear below 12,000 feet AGL
Weather: no significant weather observed at this time

METAR text: EGCC 172150Z AUTO 29007KT 9999 NCD 06/03 Q1012 NOSIG
Conditions at: EGCC (MANCHESTER INTL , GB) observed 2150 UTC 17 March 2019
Temperature: 6.0°C (43°F)
Dewpoint: 3.0°C (37°F) [RH = 81%]
Pressure (altimeter): 29.88 inches Hg (1012.0 mb)
Winds: from the WNW (290 degrees) at 8 MPH (7 knots; 3.6 m/s)
Visibility: 6 or more miles (10+ km)
Ceiling: at least 12,000 feet AGL
Clouds: sky clear below 12,000 feet AGL
Weather: no significant weather observed at this time

METAR text: EGCC 172120Z AUTO 29009KT 9999 NCD 06/03 Q1012 NOSIG
Conditions at: EGCC (MANCHESTER INTL , GB) observed 2120 UTC 17 March 2019
Temperature: 6.0°C (43°F)
Dewpoint: 3.0°C (37°F) [RH = 81%]
Pressure (altimeter): 29.88 inches Hg (1012.0 mb)
Winds: from the WNW (290 degrees) at 10 MPH (9 knots; 4.6 m/s)
Visibility: 6 or more miles (10+ km)
Ceiling: at least 12,000 feet AGL
Clouds: sky clear below 12,000 feet AGL
Weather: no significant weather observed at this time

METAR text: EGCC 172050Z AUTO 28008KT 9999 NCD 06/03 Q1011 NOSIG
Conditions at: EGCC (MANCHESTER INTL , GB) observed 2050 UTC 17 March 2019
Temperature: 6.0°C (43°F)
Dewpoint: 3.0°C (37°F) [RH = 81%]
Pressure (altimeter): 29.85 inches Hg (1011.0 mb)
Winds: from the W (280 degrees) at 9 MPH (8 knots; 4.1 m/s)
Visibility: 6 or more miles (10+ km)
Ceiling: at least 12,000 feet AGL
Clouds: sky clear below 12,000 feet AGL
Weather: no significant weather observed at this time

METAR text: EGCC 172020Z AUTO 29012KT 9999 NCD 07/04 Q1011 NOSIG
Conditions at: EGCC (MANCHESTER INTL , GB) observed 2020 UTC 17 March 2019
Temperature: 7.0°C (45°F)
Dewpoint: 4.0°C (39°F) [RH = 81%]
Pressure (altimeter): 29.85 inches Hg (1011.0 mb)
Winds: from the WNW (290 degrees) at 14 MPH (12 knots; 6.2 m/s)
Visibility: 6 or more miles (10+ km)
Ceiling: at least 12,000 feet AGL
Clouds: sky clear below 12,000 feet AGL
Weather: no significant weather observed at this time

METAR text: EGCC 171950Z AUTO 30013KT 9999 SCT047 07/04 Q1010 NOSIG
Conditions at: EGCC (MANCHESTER INTL , GB) observed 1950 UTC 17 March 2019
Temperature: 7.0°C (45°F)
Dewpoint: 4.0°C (39°F) [RH = 81%]
Pressure (altimeter): 29.82 inches Hg (1010.0 mb)
Winds: from the WNW (300 degrees) at 15 MPH (13 knots; 6.7 m/s)
Visibility: 6 or more miles (10+ km)
Ceiling: at least 12,000 feet AGL
Clouds: scattered clouds at 4700 feet AGL
Weather: no significant weather observed at this time

METAR text: EGCC 171920Z AUTO 28009KT 9999 BKN020 OVC044 07/04 Q1009 NOSIG
Conditions at: EGCC (MANCHESTER INTL , GB) observed 1920 UTC 17 March 2019
Temperature: 7.0°C (45°F)
Dewpoint: 4.0°C (39°F) [RH = 81%]
Pressure (altimeter): 29.79 inches Hg (1009.0 mb)
Winds: from the W (280 degrees) at 10 MPH (9 knots; 4.6 m/s)
Visibility: 6 or more miles (10+ km)
Ceiling: 2000 feet AGL
Clouds: broken clouds at 2000 feet AGL
overcast cloud deck at 4400 feet AGL
Weather: no significant weather observed at this time

METAR text: EGCC 171850Z AUTO 29008KT 9999 SCT021 BKN038 OVC048 07/04 Q1009 NOSIG
Conditions at: EGCC (MANCHESTER INTL , GB) observed 1850 UTC 17 March 2019
Temperature: 7.0°C (45°F)
Dewpoint: 4.0°C (39°F) [RH = 81%]
Pressure (altimeter): 29.79 inches Hg (1009.0 mb)
Winds: from the WNW (290 degrees) at 9 MPH (8 knots; 4.1 m/s)
Visibility: 6 or more miles (10+ km)
Ceiling: 3800 feet AGL
Clouds: scattered clouds at 2100 feet AGL
broken clouds at 3800 feet AGL
overcast cloud deck at 4800 feet AGL
Weather: no significant weather observed at this time

METAR text: EGCC 171820Z AUTO 28008KT 9999 SCT022 BKN046 06/04 Q1008 NOSIG
Conditions at: EGCC (MANCHESTER INTL , GB) observed 1820 UTC 17 March 2019
Temperature: 6.0°C (43°F)
Dewpoint: 4.0°C (39°F) [RH = 87%]
Pressure (altimeter): 29.76 inches Hg (1008.0 mb)
Winds: from the W (280 degrees) at 9 MPH (8 knots; 4.1 m/s)
Visibility: 6 or more miles (10+ km)
Ceiling: 4600 feet AGL
Clouds: scattered clouds at 2200 feet AGL
broken clouds at 4600 feet AGL
Weather: no significant weather observed at this time

METAR text: EGCC 171750Z AUTO 28010KT 9999 -RA FEW021 BKN032 BKN041 06/04 Q1007 NOSIG
Conditions at: EGCC (MANCHESTER INTL , GB) observed 1750 UTC 17 March 2019
Temperature: 6.0°C (43°F)
Dewpoint: 4.0°C (39°F) [RH = 87%]
Pressure (altimeter): 29.73 inches Hg (1007.0 mb)
Winds: from the W (280 degrees) at 12 MPH (10 knots; 5.1 m/s)
Visibility: 6 or more miles (10+ km)
Ceiling: 3200 feet AGL
Clouds: few clouds at 2100 feet AGL
broken clouds at 3200 feet AGL
broken clouds at 4100 feet AGL
Weather: -RA  (light rain)

Forecast for: EGCC (MANCHESTER INTL , GB)
Text: TAF EGCC 190459Z 1906/2012 24004KT 3000 DZ BR BKN004
Forecast period: 0600 UTC 19 March 2019 to 1200 UTC 20 March 2019
Forecast type: FROM: standard forecast or significant change
Winds: from the WSW (240 degrees) at 5 MPH (4 knots; 2.1 m/s)
Visibility: 1.86 miles (2.99 km)
Ceiling: 400 feet AGL
Clouds: broken clouds at 400 feet AGL
Weather: DZ BR  (moderate drizzle, mist)
Text: BECMG 1906/1909 9999 NSW FEW006 BKN022
Forecast period: 0600 UTC 19 March 2019 to 1200 UTC 20 March 2019
Forecast type: BECOMING: Conditions expected to become as follows by 0900 UTC 19 March 2019
Winds: from the WSW (240 degrees) at 5 MPH (4 knots; 2.1 m/s)
Visibility: 6 or more miles 10+ km)
Ceiling: 2200 feet AGL
Clouds: few clouds at 600 feet AGL
broken clouds at 2200 feet AGL
Weather: NSW  (no significant weather)
Text: TEMPO 1909/2012 8000 -DZ FEW003 BKN006
Forecast period: 0900 UTC 19 March 2019 to 1200 UTC 20 March 2019
Forecast type: TEMPORARY: The following changes expected for less than half the time period
Visibility: 5 miles (8 km)
Ceiling: 600 feet AGL
Clouds: few clouds at 300 feet AGL
broken clouds at 600 feet AGL
Weather: -DZ  (light drizzle)
Text: PROB30
Forecast period: 0900 to 1200 UTC 19 March 2019
Forecast type: TEMPORARY: The following changes expected for less than half the time period
Visibility: 1.86 miles (2.99 km)
Ceiling: 300 feet AGL
Clouds: broken clouds at 300 feet AGL
Weather: DZ BR  (moderate drizzle, mist)
Text: TEMPO 1909/1912 3000 DZ BR BKN003
Forecast period: 1800 UTC 19 March 2019 to 0900 UTC 20 March 2019
Forecast type: TEMPORARY: The following changes expected for less than half the time period
Visibility: 1.86 miles (2.99 km)
Ceiling: 300 feet AGL
Clouds: broken clouds at 300 feet AGL
Weather: DZ BR  (moderate drizzle, mist)